createdAt,value
2022-09-05T00:00:23.137Z,3.17
2022-09-05T00:03:00.813Z,3.05
2022-09-05T00:06:02.605Z,2.80
2022-09-05T00:08:55.335Z,3.20
2022-09-05T00:11:44.978Z,3.03
2022-09-05T00:15:16.397Z,2.78
2022-09-05T00:20:40.781Z,3.22
2022-09-05T00:24:26.450Z,3.22
2022-09-05T00:24:42.789Z,2.40
2022-09-05T00:27:40.383Z,3.00
2022-09-05T00:31:05.502Z,3.10
2022-09-05T00:33:16.885Z,3.03
2022-09-05T00:36:02.175Z,2.90
2022-09-05T00:38:33.440Z,3.03
2022-09-05T00:43:48.292Z,2.95
2022-09-05T00:46:25.352Z,3.00
2022-09-05T00:49:10.252Z,3.00
2022-09-05T00:52:01.713Z,2.90
2022-09-05T00:54:51.446Z,2.80
2022-09-05T00:57:30.743Z,3.05
2022-09-05T01:00:16.430Z,3.10
2022-09-05T01:03:10.879Z,2.83
2022-09-05T01:06:02.630Z,2.90
2022-09-05T01:08:52.071Z,2.85
2022-09-05T01:12:11.180Z,3.30
2022-09-05T01:14:59.381Z,3.03
2022-09-05T01:18:00.252Z,3.20
2022-09-05T01:20:46.695Z,2.63
2022-09-05T01:23:54.715Z,2.92
2022-09-05T01:26:33.108Z,3.05
2022-09-05T01:29:19.465Z,3.17
2022-09-05T01:31:52.862Z,2.72
2022-09-05T01:37:24.720Z,2.63
2022-09-05T01:40:29.504Z,2.78
2022-09-05T01:43:15.454Z,3.63
2022-09-05T01:46:08.962Z,3.70
2022-09-05T01:48:44.554Z,3.00
2022-09-05T01:51:36.014Z,2.97
2022-09-05T01:54:25.099Z,3.30
2022-09-05T01:57:07.512Z,3.58
2022-09-05T01:59:48.373Z,3.33
2022-09-05T02:02:50.247Z,3.17
2022-09-05T02:05:48.816Z,3.70
2022-09-05T02:08:16.183Z,2.97
2022-09-05T02:11:03.164Z,3.65
2022-09-05T02:13:35.936Z,3.20
2022-09-05T02:16:43.072Z,3.30
2022-09-05T02:19:10.002Z,3.58
2022-09-05T02:22:06.168Z,3.30
2022-09-05T02:24:33.063Z,3.47
2022-09-05T02:27:44.461Z,3.15
2022-09-05T02:30:18.368Z,3.42
2022-09-05T02:32:54.746Z,3.75
2022-09-05T02:35:33.272Z,3.53
2022-09-05T02:40:21.934Z,3.60
2022-09-05T02:45:09.903Z,3.50
2022-09-05T02:45:20.071Z,3.45
2022-09-05T02:47:45.451Z,3.30
2022-09-05T02:56:02.909Z,3.60
2022-09-05T02:57:30.241Z,3.55
2022-09-05T02:57:37.227Z,3.65
2022-09-05T02:59:36.505Z,3.63
2022-09-05T03:02:31.515Z,4.03
2022-09-05T03:05:05.361Z,3.20
2022-09-05T03:07:42.927Z,3.25
2022-09-05T03:10:51.816Z,3.50
2022-09-05T03:13:37.590Z,3.47
2022-09-05T03:16:47.005Z,3.70
2022-09-05T03:20:05.575Z,3.63
2022-09-05T03:23:09.780Z,4.22
2022-09-05T03:25:50.019Z,3.70
2022-09-05T03:28:46.214Z,4.00
2022-09-05T03:31:57.882Z,4.18
2022-09-05T03:34:46.617Z,3.92
2022-09-05T03:37:13.443Z,3.85
2022-09-05T03:40:37.634Z,4.07
2022-09-05T03:46:17.738Z,3.72
2022-09-05T03:48:47.356Z,4.22
2022-09-05T03:57:05.902Z,4.43
2022-09-05T03:57:18.469Z,4.30
2022-09-05T03:58:56.021Z,3.65
2022-09-05T04:02:46.512Z,3.58
2022-09-05T04:08:08.536Z,4.00
2022-09-05T04:08:19.557Z,4.30
2022-09-05T04:10:34.008Z,4.20
2022-09-05T04:13:26.249Z,4.72
2022-09-05T04:16:17.702Z,4.28
2022-09-05T04:18:54.986Z,4.72
2022-09-05T04:21:29.328Z,5.18
2022-09-05T04:24:06.132Z,4.68
2022-09-05T04:26:46.728Z,4.85
2022-09-05T04:29:21.369Z,4.60
2022-09-05T04:31:48.436Z,5.32
2022-09-05T04:34:55.114Z,5.32
2022-09-05T04:37:48.490Z,5.05
2022-09-05T04:40:48.767Z,4.97
2022-09-05T04:43:18.360Z,4.57
2022-09-05T04:46:18.313Z,5.47
2022-09-05T04:49:04.680Z,4.43
2022-09-05T04:52:00.919Z,4.32
2022-09-05T04:54:40.958Z,4.90
2022-09-05T04:57:14.030Z,5.22
2022-09-05T05:06:14.814Z,4.82
2022-09-05T05:06:18.706Z,4.47
2022-09-05T05:06:31.690Z,4.82
2022-09-05T05:09:02.815Z,4.38
2022-09-05T05:17:56.337Z,5.40
2022-09-05T05:18:14.228Z,4.90
2022-09-05T05:18:16.389Z,4.78
2022-09-05T05:21:00.745Z,4.57
2022-09-05T05:23:35.566Z,4.88
2022-09-05T05:26:06.461Z,4.90
2022-09-05T05:28:49.034Z,5.03
2022-09-05T05:31:21.306Z,6.13
2022-09-05T05:34:24.160Z,5.30
2022-09-05T05:37:04.215Z,5.60
2022-09-05T05:39:33.781Z,5.70
2022-09-05T05:42:20.207Z,5.75
2022-09-05T05:44:53.716Z,5.50
2022-09-05T05:47:32.287Z,6.00
2022-09-05T05:50:18.784Z,6.45
2022-09-05T05:53:07.194Z,5.63
2022-09-05T05:55:56.405Z,6.30
2022-09-05T05:58:32.811Z,6.00
2022-09-05T06:01:36.982Z,5.60
2022-09-05T06:04:45.035Z,6.25
2022-09-05T06:09:14.101Z,6.28
2022-09-05T06:14:57.622Z,5.90
2022-09-05T06:14:58.419Z,6.35
2022-09-05T06:17:36.145Z,5.90
2022-09-05T06:22:10.315Z,7.20
2022-09-05T06:23:38.747Z,7.10
2022-09-05T06:26:23.488Z,6.13
2022-09-05T06:29:14.796Z,5.65
2022-09-05T06:32:04.491Z,5.97
2022-09-05T06:35:05.066Z,5.25
2022-09-05T06:37:57.274Z,5.28
2022-09-05T06:40:45.935Z,4.78
2022-09-05T06:43:16.355Z,5.65
2022-09-05T06:46:43.807Z,5.40
2022-09-05T06:49:45.997Z,5.38
2022-09-05T06:52:29.571Z,5.15
2022-09-05T06:55:18.739Z,4.72
2022-09-05T06:58:32.932Z,4.10
2022-09-05T07:01:01.168Z,4.75
2022-09-05T07:03:52.194Z,4.32
2022-09-05T07:07:06.318Z,4.07
2022-09-05T07:09:57.466Z,4.05
2022-09-05T07:12:32.216Z,3.83
2022-09-05T07:15:19.218Z,3.78
2022-09-05T07:18:10.443Z,3.47
2022-09-05T07:21:18.158Z,3.92
2022-09-05T07:24:07.193Z,3.38
2022-09-05T07:26:54.184Z,3.40
2022-09-05T07:29:34.560Z,3.47
2022-09-05T07:32:03.235Z,3.80
2022-09-05T07:34:32.071Z,3.13
2022-09-05T07:37:15.743Z,3.13
2022-09-05T07:39:55.532Z,3.03
2022-09-05T07:42:32.145Z,3.58
2022-09-05T07:45:08.587Z,3.53
2022-09-05T07:47:41.337Z,2.95
2022-09-05T07:54:30.037Z,3.15
2022-09-05T07:57:05.037Z,3.20
2022-09-05T07:57:06.157Z,3.05
2022-09-05T07:58:52.011Z,2.92
2022-09-05T08:01:25.332Z,2.78
2022-09-05T08:03:56.417Z,2.22
2022-09-05T08:07:14.389Z,2.92
2022-09-05T08:10:06.979Z,2.75
2022-09-05T08:13:23.066Z,2.38
2022-09-05T08:15:27.377Z,2.67
2022-09-05T08:18:20.157Z,2.22
2022-09-05T08:23:20.009Z,2.08
2022-09-05T08:25:59.542Z,2.13
2022-09-05T08:29:04.660Z,1.73
2022-09-05T08:31:51.608Z,1.85
2022-09-05T08:34:39.805Z,2.08
2022-09-05T08:37:21.279Z,2.00
2022-09-05T08:40:09.985Z,1.80
2022-09-05T08:46:36.267Z,1.90
2022-09-05T08:46:42.600Z,1.75
2022-09-05T08:49:38.043Z,1.98
2022-09-05T08:52:12.344Z,1.90
2022-09-05T08:57:58.964Z,2.05
2022-09-05T09:00:31.436Z,1.70
2022-09-05T09:06:12.843Z,1.73
2022-09-05T09:09:02.112Z,1.85
2022-09-05T09:11:37.514Z,1.65
2022-09-05T09:14:41.820Z,1.60
2022-09-05T09:17:35.293Z,1.55
2022-09-05T09:20:11.094Z,1.65
2022-09-05T09:23:02.902Z,1.58
2022-09-05T09:26:11.304Z,1.45
2022-09-05T09:28:51.608Z,1.50
2022-09-05T09:31:50.305Z,1.42
2022-09-05T09:34:26.266Z,1.50
2022-09-05T09:37:15.222Z,1.27
2022-09-05T09:40:22.010Z,1.40
2022-09-05T09:42:54.549Z,1.23
2022-09-05T09:45:43.984Z,1.42
2022-09-05T09:48:10.835Z,1.40
2022-09-05T09:51:06.825Z,1.35
2022-09-05T09:53:42.971Z,1.30
2022-09-05T09:56:51.189Z,1.50
2022-09-05T09:59:55.612Z,1.25
2022-09-05T10:04:55.565Z,1.30
2022-09-05T10:10:35.026Z,1.15
2022-09-05T10:10:46.170Z,1.30
2022-09-05T10:12:03.225Z,1.83
2022-09-05T10:14:54.789Z,1.30
2022-09-05T10:17:22.388Z,1.50
2022-09-05T10:20:10.064Z,1.58
2022-09-05T10:23:01.209Z,1.27
2022-09-05T10:26:02.260Z,1.55
2022-09-05T10:29:36.733Z,1.50
2022-09-05T10:35:04.487Z,1.50
2022-09-05T10:35:22.262Z,1.10
2022-09-05T10:38:10.603Z,1.30
2022-09-05T10:41:06.665Z,1.27
2022-09-05T10:43:30.209Z,1.23
2022-09-05T10:45:57.074Z,1.05
2022-09-05T10:48:29.352Z,1.60
2022-09-05T10:51:27.714Z,1.30
2022-09-05T10:54:13.484Z,1.20
2022-09-05T10:56:46.861Z,1.58
2022-09-05T11:02:16.446Z,1.30
2022-09-05T11:02:38.412Z,1.20
2022-09-05T11:05:22.198Z,1.40
2022-09-05T11:07:55.104Z,1.10
2022-09-05T11:10:44.330Z,0.90
2022-09-05T11:13:24.114Z,1.10
2022-09-05T11:16:08.325Z,0.80
2022-09-05T11:18:56.009Z,1.00
2022-09-05T11:22:10.298Z,0.98
2022-09-05T11:25:01.248Z,1.00
2022-09-05T11:27:44.381Z,1.00
2022-09-05T11:30:29.926Z,0.95
2022-09-05T11:36:32.316Z,1.05
2022-09-05T11:39:56.730Z,1.10
2022-09-05T11:40:03.914Z,0.95
2022-09-05T11:42:24.246Z,1.05
2022-09-05T11:45:00.058Z,0.90
2022-09-05T11:47:46.456Z,0.90
2022-09-05T11:50:58.531Z,0.90
2022-09-05T11:53:39.185Z,0.77
2022-09-05T11:56:06.097Z,0.90
2022-09-05T11:58:58.991Z,0.95
2022-09-05T12:02:16.960Z,1.08
2022-09-05T12:05:49.922Z,0.98
2022-09-05T12:08:04.265Z,0.93
2022-09-05T12:10:47.871Z,0.98
2022-09-05T12:13:37.055Z,0.93
2022-09-05T12:16:41.261Z,0.75
2022-09-05T12:19:23.721Z,1.20
2022-09-05T12:22:18.727Z,0.88
2022-09-05T12:25:24.760Z,0.93
2022-09-05T12:28:28.883Z,1.00
2022-09-05T12:31:29.296Z,1.10
2022-09-05T12:36:01.854Z,0.95
2022-09-05T12:40:44.838Z,1.05
2022-09-05T12:40:57.405Z,0.80
2022-09-05T12:43:53.022Z,1.10
2022-09-05T12:46:27.336Z,0.70
2022-09-05T12:49:36.157Z,0.80
2022-09-05T12:52:07.066Z,1.08
2022-09-05T12:54:47.649Z,1.27
2022-09-05T13:02:41.916Z,1.00
2022-09-05T13:03:05.546Z,0.88
2022-09-05T13:03:28.481Z,1.00
2022-09-05T13:06:24.958Z,1.00
2022-09-05T13:09:03.519Z,0.98
2022-09-05T13:14:47.711Z,1.00
2022-09-05T13:14:57.457Z,1.02
2022-09-05T13:17:48.881Z,0.90
2022-09-05T13:20:32.616Z,0.98
2022-09-05T13:23:05.080Z,0.95
2022-09-05T13:25:34.483Z,1.00
2022-09-05T13:28:09.476Z,1.10
2022-09-05T13:35:36.684Z,0.90
2022-09-05T13:38:16.291Z,1.00
2022-09-05T13:38:17.484Z,0.70
2022-09-05T13:39:28.878Z,0.77
2022-09-05T13:42:03.687Z,0.87
2022-09-05T13:44:38.002Z,0.85
2022-09-05T13:47:29.802Z,0.90
2022-09-05T13:52:59.776Z,0.80
2022-09-05T13:55:58.901Z,0.93
2022-09-05T13:58:56.482Z,1.00
2022-09-05T14:01:24.372Z,0.80
2022-09-05T14:05:05.434Z,0.80
2022-09-05T14:10:43.817Z,0.90
2022-09-05T14:13:27.360Z,0.93
2022-09-05T14:16:05.740Z,0.80
2022-09-05T14:18:55.856Z,0.73
2022-09-05T14:21:26.664Z,1.10
2022-09-05T14:24:27.936Z,0.90
2022-09-05T14:26:59.080Z,0.90
2022-09-05T14:29:45.801Z,0.82
2022-09-05T14:37:49.008Z,0.77
2022-09-05T14:37:54.003Z,1.00
2022-09-05T14:38:23.574Z,0.90
2022-09-05T14:41:21.971Z,0.77
2022-09-05T14:44:15.492Z,0.80
2022-09-05T14:46:51.511Z,0.80
2022-09-05T14:49:30.326Z,0.90
2022-09-05T14:51:58.329Z,1.15
2022-09-05T15:02:34.030Z,1.00
2022-09-05T15:02:45.490Z,0.80
2022-09-05T15:03:04.989Z,1.02
2022-09-05T15:05:40.085Z,0.70
2022-09-05T15:08:26.969Z,1.00
2022-09-05T15:12:15.835Z,0.82
2022-09-05T15:14:12.484Z,1.02
2022-09-05T15:16:45.698Z,1.05
2022-09-05T15:19:34.491Z,1.00
2022-09-05T15:22:24.448Z,0.80
2022-09-05T15:25:27.445Z,0.70
2022-09-05T15:27:55.288Z,0.90
2022-09-05T15:30:34.990Z,0.70
2022-09-05T15:33:25.801Z,0.93
2022-09-05T15:35:53.563Z,1.02
2022-09-05T15:38:46.637Z,0.95
2022-09-05T15:41:29.539Z,0.90
2022-09-05T15:44:03.809Z,1.00
2022-09-05T15:46:51.491Z,1.00
2022-09-05T15:50:04.898Z,1.00
2022-09-05T15:52:41.110Z,0.90
2022-09-05T15:55:24.626Z,1.00
2022-09-05T15:58:04.433Z,1.23
2022-09-05T16:00:34.498Z,1.00
2022-09-05T16:04:10.783Z,1.10
2022-09-05T16:10:38.519Z,1.08
2022-09-05T16:10:50.848Z,1.10
2022-09-05T16:12:18.959Z,1.13
2022-09-05T16:15:07.189Z,1.10
2022-09-05T16:23:14.997Z,1.10
2022-09-05T16:23:29.699Z,1.10
2022-09-05T16:23:41.339Z,1.17
2022-09-05T16:26:09.041Z,1.10
2022-09-05T16:28:43.056Z,0.93
2022-09-05T16:31:28.408Z,0.90
2022-09-05T16:33:55.346Z,1.15
2022-09-05T16:36:40.049Z,1.13
2022-09-05T16:39:17.628Z,1.65
2022-09-05T16:42:14.844Z,1.00
2022-09-05T16:45:07.716Z,1.10
2022-09-05T16:47:43.223Z,1.00
2022-09-05T16:50:24.332Z,1.10
2022-09-05T16:53:30.019Z,1.10
2022-09-05T16:55:59.230Z,0.90
2022-09-05T16:58:46.354Z,0.95
2022-09-05T17:01:20.486Z,1.00
2022-09-05T17:04:20.728Z,1.27
2022-09-05T17:06:54.960Z,1.40
2022-09-05T17:09:28.056Z,1.23
2022-09-05T17:12:07.180Z,1.20
2022-09-05T17:14:39.612Z,1.08
2022-09-05T17:17:20.362Z,1.08
2022-09-05T17:20:10.867Z,1.00
2022-09-05T17:25:42.964Z,0.95
2022-09-05T17:29:24.590Z,1.00
2022-09-05T17:29:34.134Z,0.93
2022-09-05T17:31:59.217Z,1.40
2022-09-05T17:34:51.546Z,1.13
2022-09-05T17:37:31.816Z,1.48
2022-09-05T17:40:36.744Z,1.40
2022-09-05T17:43:28.932Z,1.55
2022-09-05T17:45:59.622Z,1.37
2022-09-05T17:48:49.236Z,1.40
2022-09-05T17:51:34.634Z,1.10
2022-09-05T17:54:09.454Z,1.35
2022-09-05T17:56:45.433Z,1.40
2022-09-05T17:59:21.477Z,1.45
2022-09-05T18:02:03.892Z,1.70
2022-09-05T18:04:50.934Z,1.83
2022-09-05T18:07:27.053Z,1.85
2022-09-05T18:10:00.060Z,1.60
2022-09-05T18:13:13.192Z,2.10
2022-09-05T18:15:36.323Z,1.90
2022-09-05T18:18:08.588Z,1.50
2022-09-05T18:20:58.414Z,2.07
2022-09-05T18:23:54.777Z,1.85
2022-09-05T18:26:24.653Z,2.13
2022-09-05T18:29:30.992Z,2.05
2022-09-05T18:32:33.599Z,1.73
2022-09-05T18:35:26.339Z,1.90
2022-09-05T18:38:04.516Z,2.28
2022-09-05T18:40:39.480Z,2.28
2022-09-05T18:43:14.227Z,2.40
2022-09-05T18:45:52.204Z,2.22
2022-09-05T18:48:30.036Z,1.92
2022-09-05T18:51:13.031Z,2.13
2022-09-05T18:53:47.589Z,2.30
2022-09-05T18:56:27.248Z,2.42
2022-09-05T18:59:10.150Z,2.90
2022-09-05T19:04:40.566Z,2.50
2022-09-05T19:07:18.437Z,2.78
2022-09-05T19:10:35.553Z,2.35
2022-09-05T19:13:24.043Z,2.30
2022-09-05T19:16:43.874Z,2.22
2022-09-05T19:19:16.289Z,2.42
2022-09-05T19:22:33.247Z,1.95
2022-09-05T19:24:45.349Z,1.50
2022-09-05T19:27:39.612Z,2.03
2022-09-05T19:37:06.458Z,1.70
2022-09-05T19:37:10.401Z,2.58
2022-09-05T19:38:12.546Z,2.08
2022-09-05T19:47:27.435Z,2.08
2022-09-05T19:47:34.814Z,1.90
2022-09-05T19:47:44.059Z,2.00
2022-09-05T19:49:10.683Z,2.10
2022-09-05T19:51:41.140Z,2.05
2022-09-05T19:54:22.248Z,1.85
2022-09-05T19:56:49.394Z,1.80
2022-09-05T19:59:24.422Z,1.90
2022-09-05T20:01:53.188Z,1.90
2022-09-05T20:04:21.618Z,1.75
2022-09-05T20:06:50.012Z,1.73
2022-09-05T20:09:22.784Z,2.13
2022-09-05T20:14:30.418Z,1.60
2022-09-05T20:17:27.014Z,1.80
2022-09-05T20:20:22.715Z,1.55
2022-09-05T20:22:52.138Z,1.73
2022-09-05T20:25:36.741Z,1.90
2022-09-05T20:28:10.663Z,2.10
2022-09-05T20:30:42.590Z,1.65
2022-09-05T20:33:37.116Z,2.30
2022-09-05T20:42:24.849Z,2.15
2022-09-05T20:43:16.113Z,2.20
2022-09-05T20:43:20.649Z,2.05
2022-09-05T20:44:48.650Z,2.17
2022-09-05T20:54:09.602Z,2.40
2022-09-05T20:54:10.559Z,2.30
2022-09-05T20:54:26.981Z,2.20
2022-09-05T20:56:10.004Z,2.83
2022-09-05T20:58:38.653Z,2.72
2022-09-05T21:01:22.716Z,2.30
2022-09-05T21:03:56.683Z,2.30
2022-09-05T21:06:33.493Z,3.40
2022-09-05T21:09:25.443Z,3.03
2022-09-05T21:11:55.846Z,3.35
2022-09-05T21:14:24.458Z,2.30
2022-09-05T21:17:13.453Z,2.60
2022-09-05T21:19:43.802Z,2.30
2022-09-05T21:22:25.042Z,2.40
2022-09-05T21:25:20.227Z,2.63
2022-09-05T21:28:05.458Z,2.20
2022-09-05T21:30:38.624Z,2.35
2022-09-05T21:33:09.984Z,2.30
2022-09-05T21:35:47.574Z,2.05
2022-09-05T21:38:18.712Z,2.55
2022-09-05T21:41:04.877Z,2.28
2022-09-05T21:47:33.549Z,2.30
2022-09-05T21:47:44.916Z,2.42
2022-09-05T21:49:09.078Z,2.83
2022-09-05T21:51:37.441Z,2.35
2022-09-05T21:59:13.803Z,2.38
2022-09-05T21:59:26.795Z,2.30
2022-09-05T21:59:56.002Z,2.22
2022-09-05T22:02:25.822Z,2.50
2022-09-05T22:04:54.151Z,2.70
2022-09-05T22:07:32.575Z,2.40
2022-09-05T22:10:01.045Z,2.45
2022-09-05T22:12:33.676Z,1.92
2022-09-05T22:15:28.508Z,2.40
2022-09-05T22:17:50.664Z,2.13
2022-09-05T22:20:21.128Z,2.40
2022-09-05T22:22:56.223Z,2.13
2022-09-05T22:25:31.960Z,2.50
2022-09-05T22:28:06.518Z,2.13
2022-09-05T22:30:36.976Z,2.60
2022-09-05T22:33:05.542Z,2.03
2022-09-05T22:35:34.651Z,1.90
2022-09-05T22:38:05.988Z,2.25
2022-09-05T22:40:36.840Z,1.90
2022-09-05T22:43:05.884Z,2.78
2022-09-05T22:45:34.722Z,2.50
2022-09-05T22:48:08.714Z,2.40
2022-09-05T22:50:35.715Z,2.53
2022-09-05T22:53:07.017Z,2.30
2022-09-05T22:55:43.000Z,2.95
2022-09-05T22:58:12.665Z,2.00
2022-09-05T23:00:39.855Z,2.63
2022-09-05T23:03:07.389Z,2.20
2022-09-05T23:05:34.497Z,2.13
2022-09-05T23:08:02.696Z,2.20
2022-09-05T23:10:30.710Z,2.08
2022-09-05T23:12:58.784Z,2.30
2022-09-05T23:15:26.676Z,2.22
2022-09-05T23:18:00.705Z,2.28
2022-09-05T23:20:29.873Z,1.92
2022-09-05T23:22:57.669Z,2.78
2022-09-05T23:25:24.895Z,2.20
2022-09-05T23:27:51.837Z,2.03
2022-09-05T23:30:19.177Z,2.30
2022-09-05T23:32:51.653Z,2.00
2022-09-05T23:35:19.586Z,2.20
2022-09-05T23:37:47.644Z,2.33
2022-09-05T23:40:21.949Z,1.83
2022-09-05T23:42:56.526Z,2.20
2022-09-05T23:45:25.047Z,2.10
2022-09-05T23:47:52.741Z,2.05
2022-09-05T23:50:20.730Z,2.17
2022-09-05T23:52:48.200Z,2.05
2022-09-05T23:55:17.945Z,2.17
2022-09-05T23:57:45.546Z,2.17
